Time;durP1;ratioP1;P1;durP2;ratioP2;P2;SDS_P1;SDS_P2;PMS_P1;PMS_P2;Temp;Humidity;BMP_temperature;BMP_pressure;BME280_temperature;BME280_humidity;BME280_pressure;Samples;Min_cycle;Max_cycle;Signal;HPM_P1;HPM_P2
2022/06/26 00:00:46;;;;;;;34.72;18.00;;;;;;;-147.27;100.00;65176.34;4976040;28;20051;-50
2022/06/26 00:03:12;;;;;;;38.92;19.30;;;;;;;-147.27;100.00;65176.34;4975833;28;20047;-49
2022/06/26 00:05:38;;;;;;;35.40;19.77;;;;;;;-147.27;100.00;65176.34;4974958;28;20106;-48
2022/06/26 00:08:04;;;;;;;;;;;;;;;-147.27;100.00;65176.34;4975706;28;20047;-56
2022/06/26 00:10:30;;;;;;;36.90;21.47;;;;;;;-147.27;100.00;65176.34;4976573;28;19919;-54
2022/06/26 00:12:55;;;;;;;38.55;20.75;;;;;;;-147.27;100.00;65176.34;4973363;28;20034;-51
2022/06/26 00:15:21;;;;;;;40.08;20.38;;;;;;;-147.27;100.00;65176.34;4978573;28;20039;-48
2022/06/26 00:17:47;;;;;;;29.70;19.40;;;;;;;-147.27;100.00;65176.34;4976911;28;20102;-49
2022/06/26 00:20:13;;;;;;;37.53;20.75;;;;;;;-147.27;100.00;65176.34;4976264;28;20031;-49
2022/06/26 00:22:38;;;;;;;33.67;19.17;;;;;;;-147.27;100.00;65176.34;4979082;28;20069;-50
2022/06/26 00:25:04;;;;;;;33.38;19.60;;;;;;;-147.27;100.00;65176.34;4976737;28;20043;-51
2022/06/26 00:27:30;;;;;;;26.52;17.50;;;;;;;-147.27;100.00;65176.34;4975157;28;20035;-47
2022/06/26 00:29:55;;;;;;;29.52;16.92;;;;;;;-147.27;100.00;65176.34;4992974;28;20038;-48
2022/06/26 00:32:21;;;;;;;32.23;17.63;;;;;;;-147.27;100.00;65176.34;4992333;28;20063;-48
2022/06/26 00:34:47;;;;;;;28.33;15.23;;;;;;;-147.27;100.00;65176.34;4943470;28;20361;-50
2022/06/26 00:37:13;;;;;;;30.35;15.85;;;;;;;-147.27;100.00;65176.34;4951720;28;20091;-49
2022/06/26 00:39:39;;;;;;;;;;;;;;;-147.27;100.00;65176.34;4955459;28;20062;-50
2022/06/26 00:42:04;;;;;;;23.93;14.57;;;;;;;-147.27;100.00;65176.34;4949711;28;19911;-51
2022/06/26 00:44:30;;;;;;;24.58;14.52;;;;;;;-147.27;100.00;65176.34;4950867;28;20052;-51
2022/06/26 00:46:56;;;;;;;19.27;13.23;;;;;;;-147.27;100.00;65176.34;4944674;28;20074;-47
2022/06/26 00:49:22;;;;;;;22.50;13.75;;;;;;;-147.27;100.00;65176.34;4960598;28;20051;-49
2022/06/26 00:51:51;;;;;;;17.02;10.88;;;;;;;-147.27;100.00;65176.34;4954698;28;20040;-51
2022/06/26 00:54:19;;;;;;;17.40;11.30;;;;;;;-147.27;100.00;65176.34;4936854;28;20035;-52
2022/06/26 00:56:44;;;;;;;15.60;10.63;;;;;;;-147.27;100.00;65176.34;4960166;28;20036;-53
2022/06/26 00:59:10;;;;;;;19.05;11.80;;;;;;;-147.27;100.00;65176.34;4947407;28;20079;-47
2022/06/26 01:01:36;;;;;;;;;;;;;;;-147.27;100.00;65176.34;4949500;28;20034;-50
2022/06/26 01:04:03;;;;;;;18.73;12.77;;;;;;;-147.27;100.00;65176.34;4943884;28;19990;-51
2022/06/26 01:06:29;;;;;;;33.20;19.50;;;;;;;-147.27;100.00;65176.34;4948666;28;20074;-48
2022/06/26 01:08:59;;;;;;;34.70;20.17;;;;;;;-147.27;100.00;65176.34;4941433;28;20112;-49
2022/06/26 01:11:27;;;;;;;32.10;18.43;;;;;;;-147.27;100.00;65176.34;4942907;28;20042;-46
2022/06/26 01:13:54;;;;;;;30.20;17.93;;;;;;;-147.27;100.00;65176.34;4954259;28;20040;-47
2022/06/26 01:16:22;;;;;;;28.50;17.33;;;;;;;-147.27;100.00;65176.34;4942841;28;20036;-49
2022/06/26 01:18:51;;;;;;;31.60;17.87;;;;;;;-147.27;100.00;65176.34;4944339;28;20050;-48
2022/06/26 01:21:21;;;;;;;27.53;17.23;;;;;;;-147.27;100.00;65176.34;4940061;28;20066;-50
2022/06/26 01:23:47;;;;;;;28.43;16.70;;;;;;;-147.27;100.00;65176.34;4941261;28;20099;-51
2022/06/26 01:26:14;;;;;;;26.27;16.57;;;;;;;-147.27;100.00;65176.34;4938538;28;20038;-52
2022/06/26 01:28:40;;;;;;;22.53;16.03;;;;;;;-147.27;100.00;65176.34;4940068;28;20040;-50
2022/06/26 01:31:06;;;;;;;28.27;16.98;;;;;;;-147.27;100.00;65176.34;4959271;28;20036;-47
2022/06/26 01:33:33;;;;;;;26.30;17.23;;;;;;;-147.27;100.00;65176.34;4951311;29;20062;-50
2022/06/26 01:35:59;;;;;;;29.73;18.33;;;;;;;-147.27;100.00;65176.34;4958405;28;20138;-51
2022/06/26 01:38:26;;;;;;;31.23;17.80;;;;;;;-147.27;100.00;65176.34;4960338;29;20042;-51
2022/06/26 01:40:54;;;;;;;27.55;15.80;;;;;;;-147.27;100.00;65176.34;4960462;29;20035;-50
2022/06/26 01:43:23;;;;;;;28.23;16.87;;;;;;;-147.27;100.00;65176.34;4961528;29;20047;-48
2022/06/26 01:45:54;;;;;;;26.77;15.57;;;;;;;-147.27;100.00;65176.34;4959623;28;20055;-48
2022/06/26 01:48:26;;;;;;;26.45;17.75;;;;;;;-147.27;100.00;65176.34;4958026;29;20055;-50
2022/06/26 01:50:53;;;;;;;27.03;16.37;;;;;;;-147.27;100.00;65176.34;4959109;28;20161;-51
2022/06/26 01:53:18;;;;;;;27.37;17.73;;;;;;;-147.27;100.00;65176.34;4958334;29;20054;-48
2022/06/26 01:55:46;;;;;;;25.70;16.87;;;;;;;-147.27;100.00;65176.34;4961019;29;20409;-51
2022/06/26 01:58:15;;;;;;;26.83;17.60;;;;;;;-147.27;100.00;65176.34;4960989;29;20042;-52
2022/06/26 02:00:43;;;;;;;27.10;19.08;;;;;;;-147.27;100.00;65176.34;4961222;28;20046;-48
2022/06/26 02:03:11;;;;;;;33.57;19.40;;;;;;;-147.27;100.00;65176.34;4956037;29;20048;-50
2022/06/26 02:05:38;;;;;;;34.30;20.70;;;;;;;-147.27;100.00;65176.34;4959920;29;20031;-48
2022/06/26 02:08:04;;;;;;;28.38;20.55;;;;;;;-147.27;100.00;65176.34;4957487;28;20046;-50
2022/06/26 02:13:36;;;;;;;38.47;22.83;;;;;;;-147.27;100.00;65176.34;4959021;28;20047;-52
2022/06/26 02:16:05;;;;;;;43.17;23.97;;;;;;;-147.27;100.00;65176.34;4958439;28;20028;-49
2022/06/26 02:18:32;;;;;;;42.97;24.70;;;;;;;-147.27;100.00;65176.34;4957224;29;20039;-48
2022/06/26 02:20:58;;;;;;;;;;;;;;;-147.27;100.00;65176.34;4960484;29;20035;-50
2022/06/26 02:23:23;;;;;;;48.13;26.33;;;;;;;-147.27;100.00;65176.34;4958623;28;19918;-47
2022/06/26 02:25:51;;;;;;;50.93;28.07;;;;;;;-147.27;100.00;65176.34;4961875;29;20028;-51
2022/06/26 02:28:16;;;;;;;51.78;27.60;;;;;;;-147.27;100.00;65176.34;4958792;29;20039;-48
2022/06/26 02:30:43;;;;;;;;;;;;;;;-147.27;100.00;65176.34;4960187;29;20047;-49
2022/06/26 02:33:09;;;;;;;50.63;28.70;;;;;;;-147.27;100.00;65176.34;4969424;28;19918;-51
2022/06/26 02:35:35;;;;;;;65.45;31.85;;;;;;;-147.27;100.00;65176.34;4987535;28;20073;-51
2022/06/26 02:38:00;;;;;;;69.13;34.72;;;;;;;-147.27;100.00;65176.34;4975230;28;20035;-46
2022/06/26 02:40:28;;;;;;;57.47;31.67;;;;;;;-147.27;100.00;65176.34;4989775;28;20031;-47
2022/06/26 02:42:54;;;;;;;57.27;30.67;;;;;;;-147.27;100.00;65176.34;4984180;28;20168;-48
2022/06/26 02:45:21;;;;;;;59.85;32.13;;;;;;;-147.27;100.00;65176.34;4986582;28;20035;-50
2022/06/26 02:47:47;;;;;;;63.72;31.52;;;;;;;-147.27;100.00;65176.34;4976691;28;20107;-50
2022/06/26 02:50:15;;;;;;;61.70;30.43;;;;;;;-147.27;100.00;65176.34;4986703;28;20143;-52
2022/06/26 02:52:42;;;;;;;62.67;32.17;;;;;;;-147.27;100.00;65176.34;4983675;28;20035;-50
2022/06/26 02:55:10;;;;;;;68.57;33.20;;;;;;;-147.27;100.00;65176.34;4992889;28;20270;-47
2022/06/26 02:57:39;;;;;;;67.00;33.23;;;;;;;-147.27;100.00;65176.34;4976530;28;20057;-49
2022/06/26 03:00:06;;;;;;;67.32;33.10;;;;;;;-147.27;100.00;65176.34;4980666;28;20027;-51
2022/06/26 03:02:34;;;;;;;69.80;31.67;;;;;;;-147.27;100.00;65176.34;4972876;28;20039;-47
2022/06/26 03:05:03;;;;;;;64.03;32.37;;;;;;;-147.27;100.00;65176.34;4982170;28;20035;-54
2022/06/26 03:07:28;;;;;;;58.22;30.98;;;;;;;-147.27;100.00;65176.34;5002427;28;20039;-49
2022/06/26 03:09:58;;;;;;;58.63;29.77;;;;;;;-147.27;100.00;65176.34;4993974;28;20034;-48
2022/06/26 03:12:25;;;;;;;57.73;29.60;;;;;;;-147.27;100.00;65176.34;4981724;28;20049;-49
2022/06/26 03:14:51;;;;;;;54.88;26.95;;;;;;;-147.27;100.00;65176.34;4978730;28;20039;-47
2022/06/26 03:17:18;;;;;;;59.75;27.33;;;;;;;-147.27;100.00;65176.34;4981420;28;20035;-52
2022/06/26 03:19:46;;;;;;;52.20;28.00;;;;;;;-147.27;100.00;65176.34;4966905;28;20042;-53
2022/06/26 03:22:12;;;;;;;52.22;26.67;;;;;;;-147.27;100.00;65176.34;4981040;28;20433;-51
2022/06/26 03:24:38;;;;;;;55.75;27.35;;;;;;;-147.27;100.00;65176.34;4992128;28;20050;-48
2022/06/26 03:27:05;;;;;;;55.60;27.47;;;;;;;-147.27;100.00;65176.34;4970509;28;20141;-51
2022/06/26 03:29:32;;;;;;;54.00;26.47;;;;;;;-147.27;100.00;65176.34;4980734;28;20035;-48
2022/06/26 03:32:00;;;;;;;53.73;27.30;;;;;;;-147.27;100.00;65176.34;4975689;28;20027;-48
2022/06/26 03:34:26;;;;;;;48.83;26.08;;;;;;;-147.27;100.00;65176.34;4987945;28;20070;-49
2022/06/26 03:36:51;;;;;;;49.90;25.63;;;;;;;-147.27;100.00;65176.34;4979150;28;20035;-51
2022/06/26 03:39:18;;;;;;;;;;;;;;;-147.27;100.00;65176.34;4988909;28;20037;-48
2022/06/26 03:41:57;;;;;;;45.53;24.20;;;;;;;-147.27;100.00;65176.34;4983102;28;19957;-48
2022/06/26 03:44:28;;;;;;;42.70;24.73;;;;;;;-147.27;100.00;65176.34;4990047;28;20051;-48
2022/06/26 03:46:54;;;;;;;54.40;26.70;;;;;;;-147.27;100.00;65176.34;4978980;28;20276;-49
2022/06/26 03:49:20;;;;;;;;;;;;;;;-147.27;100.00;65176.34;4989205;28;20032;-49
2022/06/26 03:51:46;;;;;;;46.90;24.47;;;;;;;-147.27;100.00;65176.34;4979431;28;19945;-51
2022/06/26 03:54:12;;;;;;;49.15;24.45;;;;;;;-147.27;100.00;65176.34;4974928;28;20062;-46
2022/06/26 03:56:39;;;;;;;52.05;25.35;;;;;;;-147.27;100.00;65176.34;4985794;28;20035;-51
2022/06/26 03:59:04;;;;;;;48.97;23.77;;;;;;;-147.27;100.00;65176.34;4988473;28;20034;-50
2022/06/26 04:01:34;;;;;;;56.90;26.87;;;;;;;-147.27;100.00;65176.34;4991558;28;20035;-47
2022/06/26 04:03:59;;;;;;;46.92;26.67;;;;;;;-147.27;100.00;65176.34;4999682;28;20304;-50
2022/06/26 04:06:25;;;;;;;50.42;24.40;;;;;;;-147.27;100.00;65176.34;4987376;28;20038;-56
2022/06/26 04:08:51;;;;;;;53.90;26.70;;;;;;;-147.27;100.00;65176.34;4986377;28;20035;-51
2022/06/26 04:11:16;;;;;;;49.30;25.50;;;;;;;-147.27;100.00;65176.34;4976366;28;20039;-48
2022/06/26 04:13:49;;;;;;;50.53;24.27;;;;;;;-147.27;100.00;65176.34;4973442;28;20023;-52
2022/06/26 04:16:16;;;;;;;46.63;25.80;;;;;;;-147.27;100.00;65176.34;4996545;28;20345;-52
2022/06/26 04:18:45;;;;;;;47.03;24.60;;;;;;;-147.27;100.00;65176.34;4994789;28;20031;-46
2022/06/26 04:21:11;;;;;;;44.83;24.17;;;;;;;-147.27;100.00;65176.34;4973688;28;20266;-51
2022/06/26 04:23:37;;;;;;;40.08;22.95;;;;;;;-147.27;100.00;65176.34;4994305;28;20043;-50
2022/06/26 04:26:06;;;;;;;43.83;24.40;;;;;;;-147.27;100.00;65176.34;4994221;28;20031;-49
2022/06/26 04:28:33;;;;;;;42.90;22.15;;;;;;;-147.27;100.00;65176.34;4987930;28;20285;-53
2022/06/26 04:31:02;;;;;;;47.00;22.87;;;;;;;-147.27;100.00;65176.34;4994987;28;20063;-49
2022/06/26 04:33:31;;;;;;;40.23;21.63;;;;;;;-147.27;100.00;65176.34;4978125;28;20309;-48
2022/06/26 04:36:03;;;;;;;44.97;23.23;;;;;;;-147.27;100.00;65176.34;4959273;29;20266;-54
2022/06/26 04:38:29;;;;;;;46.85;22.08;;;;;;;-147.27;100.00;65176.34;4957269;29;20295;-52
2022/06/26 04:40:56;;;;;;;48.70;22.87;;;;;;;-147.27;100.00;65176.34;4944304;29;20082;-48
2022/06/26 04:43:22;;;;;;;48.55;23.13;;;;;;;-147.27;100.00;65176.34;4959218;28;20035;-53
2022/06/26 04:45:47;;;;;;;49.87;22.27;;;;;;;-147.27;100.00;65176.34;4960142;29;20039;-50
2022/06/26 04:48:13;;;;;;;44.08;21.73;;;;;;;-147.27;100.00;65176.34;4959080;29;20042;-50
2022/06/26 04:50:39;;;;;;;42.83;20.77;;;;;;;-147.27;100.00;65176.34;4957811;28;20032;-49
2022/06/26 04:53:04;;;;;;;41.50;21.55;;;;;;;-147.27;100.00;65176.34;4956220;28;20035;-52
2022/06/26 04:55:32;;;;;;;43.60;21.23;;;;;;;-147.27;100.00;65176.34;4957406;28;20035;-51
2022/06/26 04:57:57;;;;;;;40.53;20.63;;;;;;;-147.27;100.00;65176.34;4956289;28;20035;-50
2022/06/26 05:00:24;;;;;;;33.87;18.63;;;;;;;-147.27;100.00;65176.34;4957505;28;20278;-50
2022/06/26 05:03:08;;;;;;;39.70;19.37;;;;;;;-147.27;100.00;65176.34;4958963;29;20069;-48
2022/06/26 05:05:53;;;;;;;36.00;18.30;;;;;;;-147.27;100.00;65176.34;4959205;29;20292;-52
2022/06/26 05:08:29;;;;;;;41.75;19.60;;;;;;;-147.27;100.00;65176.34;4957312;29;20290;-51
2022/06/26 05:10:54;;;;;;;33.05;16.60;;;;;;;-147.27;100.00;65176.34;4957202;28;20079;-51
2022/06/26 05:13:20;;;;;;;27.50;15.60;;;;;;;-147.27;100.00;65176.34;4956814;29;20039;-50
2022/06/26 05:15:57;;;;;;;29.30;15.13;;;;;;;-147.27;100.00;65176.34;4954667;29;20089;-48
2022/06/26 05:18:23;;;;;;;28.53;15.00;;;;;;;-147.27;100.00;65176.34;4955246;29;20035;-52
2022/06/26 05:20:53;;;;;;;28.63;14.17;;;;;;;-147.27;100.00;65176.34;4957410;29;20032;-52
2022/06/26 05:23:20;;;;;;;35.03;14.90;;;;;;;-147.27;100.00;65176.34;4958401;29;20086;-48
2022/06/26 05:25:54;;;;;;;27.17;13.43;;;;;;;-147.27;100.00;65176.34;4955963;28;20309;-48
2022/06/26 05:28:20;;;;;;;30.27;13.17;;;;;;;-147.27;100.00;65176.34;4958436;29;20274;-49
2022/06/26 05:30:45;;;;;;;25.23;12.63;;;;;;;-147.27;100.00;65176.34;4958271;29;20354;-51
2022/06/26 05:33:11;;;;;;;18.37;11.73;;;;;;;-147.27;100.00;65176.34;5002337;28;20038;-51
2022/06/26 05:35:37;;;;;;;22.30;11.48;;;;;;;-147.27;100.00;65176.34;5040228;28;20287;-51
2022/06/26 05:38:02;;;;;;;24.23;11.77;;;;;;;-147.27;100.00;65176.34;5056241;28;20045;-54
2022/06/26 05:40:28;;;;;;;25.10;11.43;;;;;;;-147.27;100.00;65176.34;5043486;28;20036;-52
2022/06/26 05:42:57;;;;;;;22.17;10.60;;;;;;;-147.27;100.00;65176.34;5035874;28;20033;-50
2022/06/26 05:45:24;;;;;;;19.33;9.67;;;;;;;-147.27;100.00;65176.34;5040292;28;20029;-50
2022/06/26 05:48:24;;;;;;;20.55;10.55;;;;;;;-147.27;100.00;65176.34;4997499;28;20097;-50
2022/06/26 05:51:05;;;;;;;23.73;10.33;;;;;;;-147.27;100.00;65176.34;5041590;28;20156;-50
2022/06/26 05:53:40;;;;;;;14.27;8.83;;;;;;;-147.27;100.00;65176.34;5038004;28;20029;-54
2022/06/26 05:56:26;;;;;;;17.47;9.70;;;;;;;-147.27;100.00;65176.34;5032824;28;21555;-49
2022/06/26 05:59:21;;;;;;;19.07;8.83;;;;;;;-147.27;100.00;65176.34;5008075;28;20199;-48
2022/06/26 06:02:03;;;;;;;16.57;8.43;;;;;;;-147.27;100.00;65176.34;5041033;28;20086;-49
2022/06/26 06:04:30;;;;;;;15.10;7.90;;;;;;;-147.27;100.00;65176.34;5043129;28;20091;-49
2022/06/26 06:07:00;;;;;;;21.93;9.20;;;;;;;-147.27;100.00;65176.34;5041954;28;20022;-52
2022/06/26 06:09:26;;;;;;;20.50;9.35;;;;;;;-147.27;100.00;65176.34;5038550;28;20052;-54
2022/06/26 06:11:53;;;;;;;14.03;8.20;;;;;;;-147.27;100.00;65176.34;5036003;28;20054;-53
2022/06/26 06:14:19;;;;;;;14.77;7.93;;;;;;;-147.27;100.00;65176.34;5025091;28;20037;-47
2022/06/26 06:16:45;;;;;;;20.38;10.70;;;;;;;-147.27;100.00;65176.34;5047792;28;20036;-49
2022/06/26 06:19:11;;;;;;;16.98;7.78;;;;;;;-147.27;100.00;65176.34;5037238;28;20045;-49
2022/06/26 06:21:41;;;;;;;14.17;7.80;;;;;;;-147.27;100.00;65176.34;5045856;28;20021;-49
2022/06/26 06:24:07;;;;;;;13.50;7.53;;;;;;;-147.27;100.00;65176.34;5036537;28;20029;-49
2022/06/26 06:26:33;;;;;;;13.27;7.90;;;;;;;-147.27;100.00;65176.34;5041709;28;20041;-51
2022/06/26 06:29:09;;;;;;;12.90;7.93;;;;;;;-147.27;100.00;65176.34;5038954;28;20068;-50
2022/06/26 06:31:36;;;;;;;16.53;8.70;;;;;;;-147.27;100.00;65176.34;5037708;28;20030;-51
2022/06/26 06:34:03;;;;;;;18.13;8.83;;;;;;;-147.27;100.00;65176.34;5041188;28;20819;-51
2022/06/26 06:36:29;;;;;;;17.92;8.45;;;;;;;-147.27;100.00;65176.34;5034576;28;20041;-51
2022/06/26 06:38:55;;;;;;;14.43;7.97;;;;;;;-147.27;100.00;65176.34;5037274;28;20026;-51
2022/06/26 06:41:21;;;;;;;14.68;6.90;;;;;;;-147.27;100.00;65176.34;5042018;28;20030;-50
2022/06/26 06:44:03;;;;;;;15.20;8.10;;;;;;;-147.27;100.00;65176.34;5043644;28;20041;-50
2022/06/26 06:46:28;;;;;;;14.80;7.97;;;;;;;-147.27;100.00;65176.34;5038603;28;20071;-52
2022/06/26 06:48:59;;;;;;;17.93;8.90;;;;;;;-147.27;100.00;65176.34;5047327;28;20025;-49
2022/06/26 06:51:29;;;;;;;12.77;7.93;;;;;;;-147.27;100.00;65176.34;5040656;28;20021;-53
2022/06/26 06:53:54;;;;;;;15.65;8.43;;;;;;;-147.27;100.00;65176.34;5038283;28;20026;-54
2022/06/26 06:56:21;;;;;;;18.80;9.07;;;;;;;-147.27;100.00;65176.34;5040739;28;20033;-47
2022/06/26 06:58:46;;;;;;;15.00;8.90;;;;;;;-147.27;100.00;65176.34;5041886;28;20036;-51
2022/06/26 07:01:12;;;;;;;11.00;7.30;;;;;;;-147.27;100.00;65176.34;5041243;28;20040;-46
2022/06/26 07:03:39;;;;;;;13.65;8.30;;;;;;;-147.27;100.00;65176.34;5047445;28;20050;-50
2022/06/26 07:06:04;;;;;;;15.03;8.50;;;;;;;-147.27;100.00;65176.34;5042609;28;20037;-53
2022/06/26 07:08:32;;;;;;;15.03;7.97;;;;;;;-147.27;100.00;65176.34;5043365;28;20040;-48
2022/06/26 07:10:57;;;;;;;12.00;8.15;;;;;;;-147.27;100.00;65176.34;5042467;28;20033;-52
2022/06/26 07:13:23;;;;;;;11.90;8.32;;;;;;;-147.27;100.00;65176.34;5039633;28;20069;-53
2022/06/26 07:15:49;;;;;;;13.70;9.33;;;;;;;-147.27;100.00;65176.34;5040098;28;20037;-53
2022/06/26 07:18:15;;;;;;;13.30;8.50;;;;;;;-147.27;100.00;65176.34;5043729;28;20093;-53
2022/06/26 07:20:41;;;;;;;15.38;8.05;;;;;;;-147.27;100.00;65176.34;5039582;28;20057;-54
2022/06/26 07:23:07;;;;;;;;;;;;;;;-147.27;100.00;65176.34;5042132;28;20029;-53
2022/06/26 07:25:44;;;;;;;17.00;8.90;;;;;;;-147.27;100.00;65176.34;5039344;28;19917;-50
2022/06/26 07:28:10;;;;;;;;;;;;;;;-147.27;100.00;65176.34;5043744;28;20033;-54
2022/06/26 07:30:36;;;;;;;21.10;10.13;;;;;;;-147.27;100.00;65176.34;5044018;28;19924;-52
2022/06/26 07:33:04;;;;;;;15.93;8.98;;;;;;;-147.27;100.00;65176.34;5000970;28;20051;-49
2022/06/26 07:35:31;;;;;;;17.17;9.17;;;;;;;-147.27;100.00;65176.34;4956342;29;20074;-48
2022/06/26 07:37:57;;;;;;;;;;;;;;;-147.27;100.00;65176.34;4940922;28;20047;-52
2022/06/26 07:40:23;;;;;;;19.83;12.77;;;;;;;-147.27;100.00;65176.34;4953530;29;19915;-53
2022/06/26 07:42:50;;;;;;;16.03;8.87;;;;;;;-147.27;100.00;65176.34;4956146;28;20034;-48
2022/06/26 07:45:15;;;;;;;12.73;7.72;;;;;;;-147.27;100.00;65176.34;4954965;28;20114;-51
2022/06/26 07:47:52;;;;;;;;;;;;;;;-147.27;100.00;65176.34;4954245;28;20035;-51
2022/06/26 07:50:19;;;;;;;;;;;;;;;-147.27;100.00;65176.34;4954404;29;19922;-51
2022/06/26 07:52:45;;;;;;;19.73;7.90;;;;;;;-147.27;100.00;65176.34;4956787;28;19960;-53
2022/06/26 07:55:10;;;;;;;9.98;7.30;;;;;;;-147.27;100.00;65176.34;4959287;28;20040;-49
2022/06/26 07:57:35;;;;;;;12.00;7.45;;;;;;;-147.27;100.00;65176.34;4957015;29;20506;-52
2022/06/26 08:00:01;;;;;;;13.43;8.93;;;;;;;-147.27;100.00;65176.34;4957252;28;20390;-50
2022/06/26 08:02:28;;;;;;;10.88;8.18;;;;;;;-147.27;100.00;65176.34;4958425;28;20095;-50
2022/06/26 08:04:54;;;;;;;14.10;9.20;;;;;;;-147.27;100.00;65176.34;4954332;29;20044;-52
2022/06/26 08:07:19;;;;;;;16.08;7.32;;;;;;;-147.27;100.00;65176.34;4954797;28;20070;-51
2022/06/26 08:09:45;;;;;;;13.65;7.18;;;;;;;-147.27;100.00;65176.34;4957323;29;20043;-49
2022/06/26 08:12:10;;;;;;;13.02;6.55;;;;;;;-147.27;100.00;65176.34;4959856;28;20118;-52
2022/06/26 08:14:36;;;;;;;9.70;6.60;;;;;;;-147.27;100.00;65176.34;4954821;29;20038;-50
2022/06/26 08:17:01;;;;;;;9.25;6.90;;;;;;;-147.27;100.00;65176.34;4954409;29;20034;-49
2022/06/26 08:19:27;;;;;;;13.77;7.75;;;;;;;-147.27;100.00;65176.34;4954885;29;20045;-49
2022/06/26 08:22:01;;;;;;;8.82;6.15;;;;;;;-147.27;100.00;65176.34;4958101;29;20140;-49
2022/06/26 08:24:28;;;;;;;16.87;7.73;;;;;;;-147.27;100.00;65176.34;4956339;28;20047;-49
2022/06/26 08:26:54;;;;;;;12.20;7.40;;;;;;;-147.27;100.00;65176.34;4958957;28;20032;-50
2022/06/26 08:29:20;;;;;;;14.20;8.00;;;;;;;-147.27;100.00;65176.34;4954189;28;20086;-51
2022/06/26 08:31:45;;;;;;;11.27;6.90;;;;;;;-147.27;100.00;65176.34;4957326;28;20055;-52
2022/06/26 08:34:11;;;;;;;9.70;7.10;;;;;;;-147.27;100.00;65176.34;4974171;28;20051;-52
2022/06/26 08:36:38;;;;;;;15.80;7.85;;;;;;;-147.27;100.00;65176.34;4975180;28;20035;-49
2022/06/26 08:39:05;;;;;;;11.87;7.77;;;;;;;-147.27;100.00;65176.34;4977046;28;20090;-52
2022/06/26 08:41:36;;;;;;;15.57;8.10;;;;;;;-147.27;100.00;65176.34;4974109;28;20086;-52
2022/06/26 08:44:02;;;;;;;11.73;7.70;;;;;;;-147.27;100.00;65176.34;4974088;28;20035;-53
2022/06/26 08:46:28;;;;;;;14.00;8.30;;;;;;;-147.27;100.00;65176.34;4977674;28;20056;-50
2022/06/26 08:48:57;;;;;;;11.43;7.15;;;;;;;-147.27;100.00;65176.34;4972295;28;20080;-52
2022/06/26 08:51:23;;;;;;;14.20;7.97;;;;;;;-147.27;100.00;65176.34;4969278;28;20047;-54
2022/06/26 08:53:48;;;;;;;12.82;7.55;;;;;;;-147.27;100.00;65176.34;4972941;28;20035;-53
2022/06/26 08:56:14;;;;;;;11.10;7.93;;;;;;;-147.27;100.00;65176.34;4972712;28;20050;-53
2022/06/26 08:58:39;;;;;;;12.73;7.38;;;;;;;-147.27;100.00;65176.34;4973633;28;20026;-50
2022/06/26 09:01:07;;;;;;;12.25;7.82;;;;;;;-147.27;100.00;65176.34;4965532;28;20062;-47
2022/06/26 09:03:34;;;;;;;26.67;15.40;;;;;;;-147.27;100.00;65176.34;4964614;28;20040;-53
2022/06/26 09:06:01;;;;;;;10.93;7.60;;;;;;;-147.27;100.00;65176.34;4973211;28;20046;-54
2022/06/26 09:08:28;;;;;;;14.93;8.57;;;;;;;-147.27;100.00;65176.34;4972179;28;20038;-52
2022/06/26 09:10:54;;;;;;;13.73;7.50;;;;;;;-147.27;100.00;65176.34;4964891;28;20066;-53
2022/06/26 09:13:19;;;;;;;11.68;7.50;;;;;;;-147.27;100.00;65176.34;4970987;28;20082;-50
2022/06/26 09:15:45;;;;;;;14.18;7.60;;;;;;;-147.27;100.00;65176.34;4969210;28;20114;-51
2022/06/26 09:18:12;;;;;;;12.73;8.68;;;;;;;-147.27;100.00;65176.34;4974716;28;20058;-54
2022/06/26 09:20:54;;;;;;;14.20;8.93;;;;;;;-147.27;100.00;65176.34;4979441;28;20035;-50
2022/06/26 09:23:21;;;;;;;13.83;7.57;;;;;;;-147.27;100.00;65176.34;4980372;28;20050;-53
2022/06/26 09:25:47;;;;;;;13.63;9.27;;;;;;;-147.27;100.00;65176.34;4978364;28;20080;-51
2022/06/26 09:28:17;;;;;;;;;;;;;;;-147.27;100.00;65176.34;4975428;28;20035;-52
2022/06/26 09:30:53;;;;;;;11.67;6.83;;;;;;;-147.27;100.00;65176.34;4981790;28;19933;-50
2022/06/26 09:33:22;;;;;;;11.53;7.37;;;;;;;-147.27;100.00;65176.34;4977839;28;20111;-52
2022/06/26 09:35:47;;;;;;;13.00;6.87;;;;;;;-147.27;100.00;65176.34;4983388;28;20278;-51
2022/06/26 09:38:18;;;;;;;12.07;6.28;;;;;;;-147.27;100.00;65176.34;4986542;28;20054;-53
2022/06/26 09:40:55;;;;;;;12.33;7.43;;;;;;;-147.27;100.00;65176.34;4975963;28;20041;-51
2022/06/26 09:43:47;;;;;;;12.83;6.17;;;;;;;-147.27;100.00;65176.34;4980482;28;20095;-52
2022/06/26 09:46:14;;;;;;;10.33;6.87;;;;;;;-147.27;100.00;65176.34;4979950;28;20051;-50
2022/06/26 09:48:41;;;;;;;9.73;6.97;;;;;;;-147.27;100.00;65176.34;4977851;28;20118;-54
2022/06/26 09:51:09;;;;;;;12.03;6.70;;;;;;;-147.27;100.00;65176.34;4978880;28;20035;-53
2022/06/26 09:53:35;;;;;;;10.13;6.17;;;;;;;-147.27;100.00;65176.34;4983909;28;20041;-53
2022/06/26 09:56:02;;;;;;;10.77;6.33;;;;;;;-147.27;100.00;65176.34;4982949;28;20038;-54
2022/06/26 09:58:29;;;;;;;12.57;6.20;;;;;;;-147.27;100.00;65176.34;4979906;28;20054;-48
2022/06/26 10:06:32;;;;;;;10.10;5.10;;;;;;;-147.27;100.00;65176.34;4981299;28;20034;-51
2022/06/26 10:09:01;;;;;;;11.70;5.40;;;;;;;-147.27;100.00;65176.34;4978466;28;20034;-51
2022/06/26 10:11:29;;;;;;;10.03;5.73;;;;;;;-147.27;100.00;65176.34;4982771;28;20121;-47
2022/06/26 10:13:59;;;;;;;9.17;5.57;;;;;;;-147.27;100.00;65176.34;4979197;28;20035;-51
2022/06/26 10:16:30;;;;;;;9.87;5.03;;;;;;;-147.27;100.00;65176.34;4980591;28;20042;-51
2022/06/26 10:19:31;;;;;;;11.37;6.30;;;;;;;-147.27;100.00;65176.34;4976968;28;20058;-50
2022/06/26 10:21:57;;;;;;;10.80;5.33;;;;;;;-147.27;100.00;65176.34;4983237;28;20103;-52
2022/06/26 10:24:24;;;;;;;12.10;5.27;;;;;;;-147.27;100.00;65176.34;4976990;28;20043;-50
2022/06/26 10:26:54;;;;;;;8.02;4.07;;;;;;;-147.27;100.00;65176.34;4980233;28;20047;-51
2022/06/26 10:29:37;;;;;;;12.97;4.60;;;;;;;-147.27;100.00;65176.34;4978630;28;20043;-51
2022/06/26 10:32:04;;;;;;;6.10;3.97;;;;;;;-147.27;100.00;65176.34;4975266;28;20055;-48
2022/06/26 10:34:31;;;;;;;8.00;4.17;;;;;;;-147.27;100.00;65176.34;4977391;28;20035;-50
2022/06/26 10:37:02;;;;;;;11.20;4.70;;;;;;;-147.27;100.00;65176.34;4978633;28;20039;-49
2022/06/26 10:39:41;;;;;;;11.83;5.17;;;;;;;-147.27;100.00;65176.34;4979251;28;20027;-49
2022/06/26 10:45:30;;;;;;;12.43;6.77;;;;;;;-147.27;100.00;65176.34;4974869;28;20170;-48
2022/06/26 10:47:58;;;;;;;11.23;6.83;;;;;;;-147.27;100.00;65176.34;4974043;28;20046;-50
2022/06/26 10:50:57;;;;;;;33.83;20.57;;;;;;;-147.27;100.00;65176.34;4979923;28;20065;-51
2022/06/26 10:53:25;;;;;;;24.20;14.30;;;;;;;-147.27;100.00;65176.34;4955617;28;20161;-51
2022/06/26 10:55:56;;;;;;;11.33;6.93;;;;;;;-147.27;100.00;65176.34;4979532;28;20035;-49
2022/06/26 10:58:23;;;;;;;10.17;5.93;;;;;;;-147.27;100.00;65176.34;4975721;28;20031;-52
2022/06/26 11:00:50;;;;;;;13.17;6.53;;;;;;;-147.27;100.00;65176.34;4975799;28;20035;-53
2022/06/26 11:03:19;;;;;;;10.70;6.83;;;;;;;-147.27;100.00;65176.34;4976748;28;20068;-52
2022/06/26 11:05:51;;;;;;;8.83;5.43;;;;;;;-147.27;100.00;65176.34;4969733;28;20043;-54
2022/06/26 11:08:30;;;;;;;17.03;6.60;;;;;;;-147.27;100.00;65176.34;4973119;28;20112;-52
2022/06/26 11:11:07;;;;;;;8.50;5.53;;;;;;;-147.27;100.00;65176.34;4968612;28;20117;-54
2022/06/26 11:13:35;;;;;;;7.90;4.28;;;;;;;-147.27;100.00;65176.34;4974883;28;20034;-49
2022/06/26 11:16:02;;;;;;;8.90;4.63;;;;;;;-147.27;100.00;65176.34;4972143;28;20126;-53
2022/06/26 11:18:36;;;;;;;20.07;10.67;;;;;;;-147.27;100.00;65176.34;4974791;28;20094;-49